Adams, NE (68301)

10:05 PM CDT on March 28, 2017 (GMT -0500)
County | | Change Station

Elev 1400 ft 40.58 °N, 96.67 °W | Updated 3 seconds ago

Rain
Rain
46.7 °F
Feels Like 42 °F
N
9.0
Wind Variable Wind from NE

Today
High -- | Low -- °F
--% Chance of Precip.
Yesterday
High -- | Low -- °F
Precip. -- in
Pressure 30.06 in
Visibility 10.0 miles
Clouds Overcast 1800 ft
Windchill 42 °F
Dew Point 43 °F
Humidity 86%
Rainfall 0.00 in
Snow Depth Not available.
7:15 AM 7:46 PM
New Moon, 1% visible
METAR KBIE 290255Z AUTO 05006KT 10SM -RA OVC018 09/06 A3006 RMK AO2 T00900063
Pressure 30.06 in
Visibility 10.0 miles
Clouds Overcast 1800 ft
Windchill 42 °F
Dew Point 43 °F
Humidity 86%
Rainfall 0.00 in
Snow Depth Not available.
7:15 AM 7:46 PM
New Moon, 1% visible
METAR KBIE 290255Z AUTO 05006KT 10SM -RA OVC018 09/06 A3006 RMK AO2 T00900063

Get Severe Weather Alerts

Thanks for signing up!

Be on the lookout for a verification email in your inbox.

You'll start receiving the daily forecast at 8 AM.

×

10-Day Weather Forecast

Almanac

Astronomy

Mar. 28, 2017 Rise Set
Actual Time
Civil Twilight
Nautical Twilight
Astronomical Twilight
Moon
Length of Visible Light
Length of Day
Tomorrow will be .
, % of the Moon is Illuminated

Today's Extremes

State Highs State Lows

Community

WunderPhotos

Upload Photos

1,962,540 photos uploaded!

WunderBlog® & News

Nearby

Air Quality

  Air Quality AQ Index Pollutant
Not available.

Snow Depth

Station Depth Elevation

Earthquake Activity

City Distance Mag. Time & Date
Minimum magnitude displayed is 2.5.

Earthquake Activity

City Distance Mag. Time & Date
Minimum magnitude displayed is 2.5.

Coastal Water Temperatures

Place Temperature

Stations

Nearby Weather Stations

Station Location Temp. Windchill Dew Point Humidity Wind Precip. Elev Updated Type
                   

Watches & Warnings

There are currently no watches in effect.